Time;durP1;ratioP1;P1;durP2;ratioP2;P2;SDS_P1;SDS_P2;PMS_P1;PMS_P2;Temp;Humidity;BMP_temperature;BMP_pressure;BME280_temperature;BME280_humidity;BME280_pressure;Samples;Min_cycle;Max_cycle;Signal;HPM_P1;HPM_P2
2022/07/09 00:01:58;;;;;;;4.90;4.50;;;13.70;99.90;;;14.52;73.75;99058.38;5141208;28;20743;-60
2022/07/09 00:04:31;;;;;;;5.05;4.50;;;13.70;99.90;;;14.54;74.85;99055.91;5143944;28;20250;-61
2022/07/09 00:07:05;;;;;;;4.72;4.32;;;13.80;99.90;;;14.50;75.09;99054.78;5145174;28;20201;-61
2022/07/09 00:09:38;;;;;;;5.05;4.20;;;13.80;99.90;;;14.51;75.01;99055.72;5148584;28;20212;-59
2022/07/09 00:12:11;;;;;;;4.70;4.30;;;13.80;99.90;;;14.50;76.16;99056.47;5139778;28;20294;-61
2022/07/09 00:14:44;;;;;;;4.63;4.07;;;13.70;99.90;;;14.40;74.32;99055.94;5139854;28;20218;-61
2022/07/09 00:17:19;;;;;;;5.32;4.53;;;13.60;99.90;;;14.33;75.56;99040.91;5137854;28;20226;-61
2022/07/09 00:19:52;;;;;;;5.00;4.60;;;13.50;99.90;;;14.22;75.43;99046.19;5142291;28;20200;-61
2022/07/09 00:22:25;;;;;;;5.43;4.70;;;13.50;99.90;;;14.17;75.68;99053.63;5140066;28;20665;-60
2022/07/09 00:24:58;;;;;;;5.28;4.75;;;13.40;99.90;;;14.11;74.68;99053.25;5141357;28;20211;-61
2022/07/09 00:27:31;;;;;;;4.63;4.10;;;13.30;99.90;;;14.10;76.05;99056.59;5142288;28;20207;-60
2022/07/09 00:30:06;;;;;;;4.93;4.45;;;13.30;99.90;;;14.08;75.34;99053.03;5139826;28;20200;-59
2022/07/09 00:32:40;;;;;;;5.15;4.70;;;13.30;99.90;;;14.10;74.89;99048.88;5139166;28;20266;-60
2022/07/09 00:35:14;;;;;;;5.70;4.88;;;13.30;99.90;;;14.09;75.40;99045.44;5140305;28;20667;-59
2022/07/09 00:37:47;;;;;;;5.90;5.13;;;13.30;99.90;;;14.02;74.99;99044.94;5140336;28;20466;-60
2022/07/09 00:40:20;;;;;;;5.65;5.22;;;13.20;99.90;;;13.93;76.54;99041.00;5141914;28;20302;-59
2022/07/09 00:42:53;;;;;;;5.75;5.25;;;13.20;99.90;;;13.78;76.41;99034.00;5140692;28;20197;-57
2022/07/09 00:45:27;;;;;;;5.57;5.18;;;13.10;99.90;;;13.80;75.96;99033.31;5143528;28;20258;-60
2022/07/09 00:48:01;;;;;;;5.32;4.68;;;13.00;99.90;;;13.80;76.08;99037.56;5140924;28;20656;-59
2022/07/09 00:50:34;;;;;;;5.68;5.18;;;13.00;99.90;;;13.87;77.95;99030.31;5142138;28;20215;-60
2022/07/09 00:53:08;;;;;;;4.90;4.55;;;13.10;99.90;;;13.79;77.17;99028.94;5139763;28;20228;-60
2022/07/09 00:55:44;;;;;;;6.53;5.30;;;13.00;99.90;;;13.75;78.17;99019.28;5142135;28;20196;-59
2022/07/09 00:58:18;;;;;;;5.70;5.20;;;12.90;99.90;;;13.78;77.59;99027.19;5142063;28;20211;-60
2022/07/09 01:00:52;;;;;;;6.07;4.88;;;13.00;99.90;;;13.83;77.71;99025.81;5140450;28;20219;-60
2022/07/09 01:03:26;;;;;;;5.40;4.80;;;13.10;99.90;;;13.83;77.07;99022.34;5142903;28;20247;-57
2022/07/09 01:06:00;;;;;;;4.85;4.43;;;13.10;99.90;;;13.80;77.00;99014.44;5138609;28;20231;-60
2022/07/09 01:08:33;;;;;;;5.50;5.00;;;13.10;99.90;;;13.54;77.66;99018.81;5142828;28;20251;-59
2022/07/09 01:11:07;;;;;;;5.32;4.75;;;12.80;99.90;;;13.54;77.22;99017.94;5141173;28;20732;-60
2022/07/09 01:13:40;;;;;;;5.07;4.78;;;12.70;99.90;;;13.55;78.03;99022.28;5139647;28;20692;-59
2022/07/09 01:16:15;;;;;;;5.50;4.97;;;12.70;99.90;;;13.55;77.24;99019.69;5142753;28;20200;-60
2022/07/09 01:18:49;;;;;;;5.07;4.68;;;12.70;99.90;;;13.50;78.64;99015.13;5141742;28;20243;-58
2022/07/09 01:21:24;;;;;;;5.05;4.65;;;12.70;99.90;;;13.51;78.24;99010.91;5141172;28;20239;-60
2022/07/09 01:23:57;;;;;;;6.35;5.05;;;12.80;99.90;;;13.45;77.66;99011.41;5139389;28;20261;-58
2022/07/09 01:26:31;;;;;;;5.55;5.05;;;12.70;99.90;;;13.40;78.27;99007.66;5140504;28;20197;-57
2022/07/09 01:29:04;;;;;;;5.68;5.13;;;12.50;99.90;;;13.41;77.61;99001.72;5140421;28;20626;-60
2022/07/09 01:31:37;;;;;;;5.60;5.10;;;12.60;99.90;;;13.39;78.33;99005.88;5139862;28;20240;-58
2022/07/09 01:34:11;;;;;;;6.70;5.47;;;12.70;99.90;;;13.39;78.82;99004.97;5143069;28;20314;-60
2022/07/09 01:36:45;;;;;;;5.00;4.60;;;12.70;99.90;;;13.38;78.81;99004.09;5140650;28;20199;-59
2022/07/09 01:39:18;;;;;;;5.45;4.93;;;12.70;99.90;;;13.43;78.95;98996.69;5143014;28;20200;-58
2022/07/09 01:41:52;;;;;;;5.55;5.05;;;12.60;99.90;;;13.26;78.12;99000.75;5143217;28;20232;-59
2022/07/09 01:44:25;;;;;;;5.15;4.78;;;12.50;99.90;;;13.13;78.83;99001.56;5139527;28;20231;-59
2022/07/09 01:46:58;;;;;;;4.82;4.40;;;12.40;99.90;;;13.06;79.20;98995.16;5141647;28;20212;-58
2022/07/09 01:49:31;;;;;;;5.20;4.70;;;12.40;99.90;;;13.12;79.67;98994.66;5142835;28;20208;-59
2022/07/09 01:52:07;;;;;;;5.10;4.70;;;12.40;99.90;;;13.06;79.29;98991.69;5139823;28;20274;-60
2022/07/09 01:54:40;;;;;;;5.20;4.70;;;12.40;99.90;;;13.06;78.90;98994.28;5137272;28;20263;-58
2022/07/09 01:57:13;;;;;;;5.65;4.90;;;12.30;99.90;;;13.14;79.43;98985.41;5138529;28;20196;-60
2022/07/09 01:59:46;;;;;;;5.30;4.95;;;12.40;99.90;;;13.12;80.38;98988.66;5137868;28;20204;-58
2022/07/09 02:02:20;;;;;;;7.95;5.20;;;12.50;99.90;;;13.14;80.35;98987.06;5142115;28;20775;-58
2022/07/09 02:04:54;;;;;;;5.38;4.88;;;12.50;99.90;;;13.18;80.26;98983.91;5140290;28;20212;-59
2022/07/09 02:07:29;;;;;;;5.10;4.72;;;12.50;99.90;;;13.18;79.76;98977.09;5138085;28;20230;-59
2022/07/09 02:10:02;;;;;;;5.43;4.93;;;12.40;99.90;;;13.11;80.10;98986.88;5139677;28;20204;-60
2022/07/09 02:12:35;;;;;;;5.28;4.78;;;12.30;99.90;;;13.03;80.10;98982.13;5142294;28;20204;-59
2022/07/09 02:15:12;;;;;;;5.35;4.88;;;12.40;99.90;;;13.03;81.98;98979.56;5141623;28;20294;-59
2022/07/09 02:17:45;;;;;;;5.05;4.55;;;12.40;99.90;;;12.99;80.33;98980.16;5138524;28;20200;-60
2022/07/09 02:20:18;;;;;;;5.43;5.00;;;12.30;99.90;;;12.91;79.92;98978.75;5140465;28;20248;-59
2022/07/09 02:22:53;;;;;;;5.55;4.68;;;12.20;99.90;;;12.74;80.48;98974.19;5137892;28;20200;-60
2022/07/09 02:25:27;;;;;;;4.75;4.45;;;12.10;99.90;;;12.78;79.87;98971.03;5136281;28;20203;-60
2022/07/09 02:28:00;;;;;;;5.60;5.10;;;11.90;99.90;;;12.69;80.67;98965.28;5141114;28;20212;-56
2022/07/09 02:30:34;;;;;;;4.78;4.47;;;11.90;99.90;;;12.68;81.02;98973.78;5140293;28;20228;-54
2022/07/09 02:33:07;;;;;;;6.05;5.60;;;11.90;99.90;;;12.67;81.99;98987.38;5135542;28;20196;-56
2022/07/09 02:35:40;;;;;;;5.38;4.90;;;12.00;99.90;;;12.70;82.27;98967.06;5136698;28;20699;-56
2022/07/09 02:38:15;;;;;;;5.40;4.90;;;12.00;99.90;;;12.73;81.98;98968.16;5136429;28;20212;-54
2022/07/09 02:40:48;;;;;;;5.55;4.85;;;12.10;99.90;;;12.78;82.00;98969.34;5135300;28;20707;-55
2022/07/09 02:43:21;;;;;;;5.53;5.07;;;12.10;99.90;;;12.80;80.80;98970.34;5140166;28;20207;-56
2022/07/09 02:45:55;;;;;;;5.53;5.03;;;12.10;99.90;;;12.83;82.22;98974.78;5130451;28;20624;-54
2022/07/09 02:48:28;;;;;;;5.40;4.93;;;12.20;99.90;;;12.84;80.31;98971.44;5138888;28;20210;-57
2022/07/09 02:51:02;;;;;;;5.38;4.88;;;12.10;99.90;;;12.82;80.83;98975.59;5135888;28;20221;-57
2022/07/09 02:53:36;;;;;;;5.45;5.10;;;12.10;99.90;;;12.78;80.73;98977.03;5134315;28;20707;-56
2022/07/09 02:56:09;;;;;;;4.90;4.40;;;12.00;99.90;;;12.78;79.55;98977.03;5133308;28;20211;-57
2022/07/09 02:58:42;;;;;;;4.82;4.53;;;12.00;99.90;;;12.76;80.32;98972.59;5133532;28;20195;-58
2022/07/09 03:01:15;;;;;;;4.95;4.55;;;12.00;99.90;;;12.70;80.58;98973.06;5135084;28;20588;-56
2022/07/09 03:03:48;;;;;;;5.05;4.65;;;11.90;99.90;;;12.63;80.30;98982.03;5140562;28;20258;-57
2022/07/09 03:06:22;;;;;;;5.00;4.70;;;11.80;99.90;;;12.53;81.51;98984.78;5138135;28;20211;-58
2022/07/09 03:08:57;;;;;;;4.93;4.40;;;11.80;99.90;;;12.49;82.06;98976.78;5137462;28;20262;-57
2022/07/09 03:11:30;;;;;;;5.20;4.70;;;11.80;99.90;;;12.51;81.52;98978.66;5134688;28;20227;-57
2022/07/09 03:14:03;;;;;;;5.00;4.60;;;11.80;99.90;;;12.50;81.52;98984.56;5137080;28;20228;-57
2022/07/09 03:16:37;;;;;;;5.25;4.45;;;11.80;99.90;;;12.50;81.49;98982.00;5141295;28;20211;-58
2022/07/09 03:19:10;;;;;;;5.38;4.95;;;11.80;99.90;;;12.43;80.56;98984.94;5135399;28;20207;-57
2022/07/09 03:21:43;;;;;;;5.13;4.63;;;11.60;99.90;;;12.34;80.99;98976.63;5136425;28;20220;-56
2022/07/09 03:24:17;;;;;;;4.95;4.43;;;11.50;99.90;;;12.29;81.14;98986.56;5138654;28;20247;-58
2022/07/09 03:26:50;;;;;;;5.15;4.70;;;11.50;99.90;;;12.29;82.24;98983.13;5137367;28;20196;-57
2022/07/09 03:29:23;;;;;;;5.45;4.95;;;11.50;99.90;;;12.31;81.81;98987.56;5137577;28;20196;-57
2022/07/09 03:31:57;;;;;;;4.85;4.45;;;11.60;99.90;;;12.34;81.59;98985.22;5142784;28;20270;-57
2022/07/09 03:34:30;;;;;;;5.28;4.97;;;11.60;99.90;;;12.37;81.79;98993.09;5142393;28;20266;-57
2022/07/09 03:37:03;;;;;;;5.00;4.70;;;11.60;99.90;;;12.42;81.42;98987.38;5142123;28;20196;-57
2022/07/09 03:39:38;;;;;;;4.80;4.40;;;11.70;99.90;;;12.39;82.04;98990.66;5140807;28;20206;-55
2022/07/09 03:42:11;;;;;;;5.68;5.18;;;11.70;99.90;;;12.39;82.60;98989.00;5138720;28;20219;-56
2022/07/09 03:44:44;;;;;;;5.15;4.75;;;11.70;99.90;;;12.44;82.31;98996.97;5138901;28;20205;-53
2022/07/09 03:47:17;;;;;;;5.53;5.00;;;11.80;99.90;;;12.45;82.77;98996.22;5140509;28;20720;-55
2022/07/09 03:49:50;;;;;;;5.07;4.68;;;11.80;99.90;;;12.46;81.40;98994.53;5143196;28;20204;-57
2022/07/09 03:52:23;;;;;;;5.07;4.57;;;11.70;99.90;;;12.46;82.26;98997.09;5143051;28;20648;-57
2022/07/09 03:54:58;;;;;;;4.88;4.40;;;11.70;99.90;;;12.51;81.74;99001.75;5138828;28;20275;-59
2022/07/09 03:57:31;;;;;;;5.53;5.13;;;11.80;99.90;;;12.51;82.50;99000.88;5140067;28;20199;-56
2022/07/09 04:00:06;;;;;;;6.50;4.47;;;11.90;99.90;;;12.53;82.18;98997.63;5143055;28;20449;-59
2022/07/09 04:02:39;;;;;;;4.90;4.57;;;11.90;99.90;;;12.56;81.22;99000.38;5141194;28;20583;-54
2022/07/09 04:05:13;;;;;;;5.63;5.18;;;11.90;99.90;;;12.61;81.40;98998.13;5140259;28;20607;-58
2022/07/09 04:07:46;;;;;;;5.28;4.78;;;11.90;99.90;;;12.57;80.12;98997.03;5136302;28;20262;-55
2022/07/09 04:10:21;;;;;;;5.38;4.82;;;11.80;99.90;;;12.61;81.23;98999.00;5138975;28;20819;-58
2022/07/09 04:12:55;;;;;;;5.25;4.70;;;11.90;99.90;;;12.59;81.16;99003.16;5137735;28;20255;-59
2022/07/09 04:15:28;;;;;;;5.13;4.63;;;11.80;99.90;;;12.57;81.70;98999.59;5140493;28;20315;-56
2022/07/09 04:18:01;;;;;;;5.13;4.72;;;11.80;99.90;;;12.57;82.56;99004.72;5137782;28;20209;-56
2022/07/09 04:20:34;;;;;;;5.55;5.05;;;11.80;99.90;;;12.61;82.12;99006.69;5136719;28;20704;-56
2022/07/09 04:23:07;;;;;;;6.18;4.85;;;11.90;99.90;;;12.68;81.19;99002.00;5140447;28;20200;-57
2022/07/09 04:25:42;;;;;;;4.82;4.43;;;12.00;99.90;;;12.75;80.78;99007.63;5139442;28;20863;-59
2022/07/09 04:28:15;;;;;;;5.53;5.03;;;11.90;99.90;;;12.81;79.85;99000.34;5140998;28;20718;-55
2022/07/09 04:30:48;;;;;;;5.15;4.65;;;12.00;99.90;;;12.85;80.31;98997.19;5138669;28;20676;-57
2022/07/09 04:33:21;;;;;;;5.60;5.10;;;12.00;99.90;;;12.93;79.91;99002.81;5138480;28;20216;-57
2022/07/09 04:35:54;;;;;;;5.13;4.72;;;12.20;99.90;;;13.00;80.82;99005.03;5137408;28;20249;-56
2022/07/09 04:38:28;;;;;;;5.47;5.03;;;12.30;99.90;;;13.04;79.53;98996.72;5144284;28;20218;-53
2022/07/09 04:41:03;;;;;;;5.20;4.80;;;12.30;99.90;;;13.13;79.74;99000.69;5134587;28;20295;-58
2022/07/09 04:43:36;;;;;;;6.20;5.68;;;12.30;99.90;;;13.15;80.35;99004.25;5137820;28;20206;-56
2022/07/09 04:46:10;;;;;;;4.68;4.38;;;12.30;99.90;;;13.29;79.54;99001.81;5133730;28;20657;-56
2022/07/09 04:48:43;;;;;;;5.00;4.60;;;12.50;99.90;;;13.40;79.19;99006.78;5141091;28;20207;-56
2022/07/09 04:51:16;;;;;;;5.25;4.82;;;12.60;99.90;;;13.57;78.87;99006.16;5141527;28;20276;-56
2022/07/09 04:53:49;;;;;;;5.43;5.00;;;12.70;99.90;;;13.70;76.88;99005.25;5143239;28;20258;-55
2022/07/09 04:56:24;;;;;;;5.80;5.00;;;12.80;99.90;;;13.74;75.76;99007.25;5143098;28;20332;-57
2022/07/09 04:59:00;;;;;;;5.57;5.18;;;12.80;99.90;;;13.78;77.78;99016.03;5141678;28;20663;-56
2022/07/09 05:01:33;;;;;;;5.45;5.05;;;12.90;99.90;;;13.73;75.53;99013.16;5144527;28;20219;-57
2022/07/09 05:04:06;;;;;;;4.93;4.60;;;12.90;99.90;;;14.00;76.34;99005.41;5144337;28;20286;-56
2022/07/09 05:06:39;;;;;;;5.20;4.80;;;13.00;99.90;;;14.27;75.02;98999.38;5144590;28;20196;-57
2022/07/09 05:09:13;;;;;;;5.15;4.75;;;13.40;99.90;;;14.65;74.96;99003.44;5135707;28;20584;-58
2022/07/09 05:11:47;;;;;;;4.82;4.53;;;13.70;99.90;;;15.14;71.93;99007.94;5139860;28;20223;-57
2022/07/09 05:14:20;;;;;;;4.82;4.40;;;14.10;99.90;;;15.52;70.41;99000.72;5139913;28;20199;-58
2022/07/09 05:16:53;;;;;;;5.00;4.60;;;14.50;99.90;;;15.82;69.09;99004.94;5135364;28;20216;-56
2022/07/09 05:19:27;;;;;;;4.45;4.05;;;14.70;99.90;;;16.29;67.96;99001.47;5135717;28;20715;-58
2022/07/09 05:22:01;;;;;;;4.88;4.47;;;15.10;99.90;;;16.70;66.12;98997.56;5133653;28;20287;-58
2022/07/09 05:24:34;;;;;;;4.78;4.25;;;15.50;99.90;;;16.94;65.26;98993.69;5143742;28;20203;-59
2022/07/09 05:27:09;;;;;;;5.38;4.88;;;15.70;99.90;;;17.20;63.96;98989.81;5141584;28;20188;-58
2022/07/09 05:29:42;;;;;;;5.43;4.40;;;15.90;99.90;;;17.73;62.93;98995.78;5140032;28;20195;-59
2022/07/09 05:32:15;;;;;;;4.60;4.20;;;16.30;99.90;;;18.08;61.82;98994.84;5142265;28;20224;-56
2022/07/09 05:34:49;;;;;;;5.28;4.13;;;16.70;99.90;;;18.22;60.80;98993.78;5142437;28;20203;-59
2022/07/09 05:37:22;;;;;;;4.82;4.43;;;16.70;99.90;;;18.61;59.99;98998.09;5140756;28;20204;-58
2022/07/09 05:39:57;;;;;;;4.00;3.60;;;17.00;99.90;;;19.05;58.76;98991.34;5140185;28;20203;-59
2022/07/09 05:42:32;;;;;;;4.03;3.72;;;17.40;99.90;;;19.44;57.37;98989.50;5138076;28;20251;-58
2022/07/09 05:45:07;;;;;;;4.00;3.70;;;17.80;99.30;;;19.99;55.70;99002.06;5141452;28;20434;-56
2022/07/09 05:47:40;;;;;;;3.80;3.50;;;18.10;98.40;;;20.39;53.99;98992.28;5141913;28;20266;-59
2022/07/09 05:50:13;;;;;;;3.83;3.50;;;18.50;97.30;;;20.80;52.82;98987.72;5142834;28;20216;-58
2022/07/09 05:52:47;;;;;;;4.10;3.80;;;19.00;96.40;;;20.85;52.86;98974.03;5142440;28;20657;-58
2022/07/09 05:55:20;;;;;;;4.00;3.70;;;19.00;96.20;;;21.31;51.94;98979.91;5137781;28;20227;-57
2022/07/09 05:57:55;;;;;;;5.78;3.35;;;19.30;95.80;;;21.40;50.85;98988.03;5139688;28;20200;-60
2022/07/09 06:00:28;;;;;;;4.40;3.38;;;19.60;94.60;;;21.39;50.98;98981.06;5137795;28;20219;-58
2022/07/09 06:03:01;;;;;;;4.10;3.70;;;19.30;95.40;;;21.35;50.96;98982.66;5136141;28;20212;-58
2022/07/09 06:05:34;;;;;;;3.95;3.63;;;19.30;95.10;;;21.52;50.88;98980.63;5139954;28;20243;-59
2022/07/09 06:08:09;;;;;;;3.83;3.38;;;19.60;94.80;;;21.98;49.03;98984.66;5138617;28;20207;-57
2022/07/09 06:10:42;;;;;;;3.67;3.20;;;19.90;94.10;;;22.45;48.39;98977.34;5137416;28;20238;-58
2022/07/09 06:13:17;;;;;;;3.88;3.05;;;20.10;93.80;;;22.70;47.48;98978.03;5139537;28;20204;-59
2022/07/09 06:15:51;;;;;;;5.53;3.13;;;20.30;93.40;;;23.06;47.14;98972.91;5139390;28;20215;-58
2022/07/09 06:18:24;;;;;;;4.35;3.42;;;20.50;93.20;;;23.05;46.28;98980.72;5139362;28;20210;-59
2022/07/09 06:20:57;;;;;;;3.45;3.15;;;20.70;92.60;;;23.27;46.29;98979.53;5133711;28;20599;-57
2022/07/09 06:23:30;;;;;;;4.15;3.08;;;20.80;92.70;;;23.34;46.47;98977.09;5140368;28;20625;-58
2022/07/09 06:26:04;;;;;;;3.25;2.92;;;21.10;92.50;;;22.96;46.35;98972.66;5138959;28;20581;-56
2022/07/09 06:28:39;;;;;;;3.38;3.08;;;20.90;92.20;;;23.01;46.59;98978.88;5139619;28;20462;-58
2022/07/09 06:31:12;;;;;;;4.15;2.90;;;20.80;92.30;;;23.82;44.25;98976.50;5138230;28;20220;-59
2022/07/09 06:33:45;;;;;;;3.67;2.83;;;21.40;91.20;;;24.07;44.22;98968.34;5138346;28;20196;-58
2022/07/09 06:36:18;;;;;;;3.05;2.75;;;21.60;91.00;;;24.64;42.85;98963.41;5135317;28;20282;-57
2022/07/09 06:41:42;;;;;;;4.13;3.10;;;22.00;90.00;;;24.60;43.88;98965.94;5141640;28;20235;-55
2022/07/09 06:44:16;;;;;;;3.13;2.90;;;22.00;90.60;;;25.14;41.92;98967.81;5140600;28;20618;-58
2022/07/09 06:46:50;;;;;;;3.85;3.20;;;22.30;89.60;;;25.44;40.87;98956.97;5136188;28;20202;-60
2022/07/09 06:49:23;;;;;;;3.72;3.00;;;22.60;87.90;;;25.79;40.84;98959.22;5135324;28;20585;-60
2022/07/09 06:51:56;;;;;;;4.25;3.10;;;22.80;88.30;;;25.89;40.00;98966.34;5136401;28;20223;-61
2022/07/09 06:54:30;;;;;;;4.28;3.38;;;22.90;87.00;;;25.85;39.93;98956.72;5127963;28;20251;-58
2022/07/09 06:57:03;;;;;;;3.80;2.95;;;23.00;86.90;;;26.01;39.88;98955.16;5137674;28;20228;-59
2022/07/09 06:59:40;;;;;;;3.97;3.20;;;23.30;86.10;;;26.22;39.66;98958.06;5137336;28;20291;-62
2022/07/09 07:02:13;;;;;;;3.30;2.80;;;23.60;85.40;;;26.81;38.47;98949.09;5135062;28;20692;-61
2022/07/09 07:04:46;;;;;;;2.92;2.72;;;24.00;84.10;;;27.00;38.26;98949.28;5138719;28;20203;-60
2022/07/09 07:07:20;;;;;;;3.35;2.60;;;24.30;83.30;;;27.55;37.47;98955.00;5135688;28;20250;-59
2022/07/09 07:09:53;;;;;;;3.25;2.95;;;24.50;82.60;;;26.14;41.06;98958.81;5138699;28;20219;-60
2022/07/09 07:12:26;;;;;;;3.13;2.70;;;24.30;84.80;;;25.93;41.67;98960.31;5139310;28;20208;-61
2022/07/09 07:15:00;;;;;;;3.90;2.85;;;23.90;85.80;;;26.98;39.51;98956.25;5135819;28;20262;-60
2022/07/09 07:17:34;;;;;;;2.60;2.40;;;24.50;84.40;;;27.68;37.47;98954.22;5136523;28;20253;-61
2022/07/09 07:20:08;;;;;;;3.65;2.70;;;25.00;81.80;;;27.99;36.95;98951.81;5130395;28;20271;-60
2022/07/09 07:22:41;;;;;;;3.58;2.50;;;25.10;81.40;;;27.89;35.83;98949.97;5135894;28;20258;-60
2022/07/09 07:25:14;;;;;;;3.80;2.53;;;25.30;78.80;;;27.85;36.16;98956.97;5133042;28;20195;-62
2022/07/09 07:27:47;;;;;;;3.83;2.67;;;25.30;79.50;;;28.77;34.95;98951.19;5134755;28;20652;-58
2022/07/09 07:30:22;;;;;;;4.30;2.70;;;25.80;78.00;;;27.75;36.43;98953.38;5136543;28;20219;-60
2022/07/09 07:32:55;;;;;;;4.28;2.63;;;25.60;78.30;;;28.70;35.83;98938.03;5131817;28;20203;-59
2022/07/09 07:35:29;;;;;;;3.65;2.50;;;26.00;78.50;;;28.84;34.99;98942.41;5135222;28;20203;-59
2022/07/09 07:38:02;;;;;;;3.78;2.33;;;26.30;77.10;;;28.42;35.73;98942.34;5132516;28;20208;-60
2022/07/09 07:40:36;;;;;;;3.00;2.30;;;25.90;78.10;;;28.91;35.07;98937.19;5139236;28;20238;-61
2022/07/09 07:43:12;;;;;;;5.55;3.17;;;26.00;77.70;;;28.75;35.42;98940.66;5135791;28;20214;-58
2022/07/09 07:45:46;;;;;;;6.10;2.92;;;26.20;77.40;;;28.45;36.41;98941.50;5130340;28;20215;-60
2022/07/09 07:48:20;;;;;;;3.33;2.60;;;26.00;78.10;;;27.14;38.53;98948.53;5139470;28;20552;-60
2022/07/09 07:50:53;;;;;;;3.65;2.65;;;25.10;80.60;;;26.58;39.94;98937.50;5132940;28;20661;-58
2022/07/09 07:53:26;;;;;;;3.47;2.50;;;24.20;83.30;;;25.67;41.80;98943.28;5138027;28;20196;-59
2022/07/09 07:56:01;;;;;;;3.33;2.45;;;23.50;85.40;;;25.26;43.12;98940.94;5135294;28;20614;-58
2022/07/09 07:58:35;;;;;;;3.35;2.50;;;23.10;87.30;;;25.19;42.69;98941.72;5137201;28;20694;-59
2022/07/09 08:01:10;;;;;;;3.85;2.60;;;22.80;87.90;;;24.96;43.89;98939.56;5136885;28;20226;-60
2022/07/09 08:03:43;;;;;;;7.68;3.38;;;22.90;88.00;;;25.05;43.77;98944.94;5139760;28;20202;-61
2022/07/09 08:06:16;;;;;;;3.35;2.65;;;23.00;88.50;;;25.61;42.92;98950.22;5139156;28;20202;-58
2022/07/09 08:08:50;;;;;;;3.40;2.72;;;23.50;87.10;;;26.16;42.09;98944.88;5132764;28;20204;-60
2022/07/09 08:11:23;;;;;;;4.68;2.60;;;24.00;85.80;;;26.83;40.09;98943.88;5134570;28;20227;-61
2022/07/09 08:13:56;;;;;;;5.50;2.53;;;24.60;83.30;;;27.38;38.78;98939.13;5132150;28;20195;-59
2022/07/09 08:16:30;;;;;;;4.72;2.47;;;25.20;81.70;;;27.81;38.04;98948.22;5132098;28;20209;-58
2022/07/09 08:19:04;;;;;;;2.40;2.20;;;25.60;80.10;;;28.10;37.52;98939.59;5136394;28;20214;-61
2022/07/09 08:21:37;;;;;;;2.65;1.95;;;25.80;79.90;;;28.38;36.46;98937.03;5141826;28;20219;-60
2022/07/09 08:24:10;;;;;;;3.20;2.22;;;26.10;78.40;;;28.21;36.38;98932.59;5134656;28;20247;-58
2022/07/09 08:26:43;;;;;;;5.05;2.10;;;26.00;78.60;;;28.08;36.61;98930.81;5139863;28;20246;-58
2022/07/09 08:29:16;;;;;;;2.17;1.80;;;25.70;77.80;;;28.29;35.61;98930.00;5135948;28;20201;-62
2022/07/09 08:31:51;;;;;;;2.30;1.83;;;25.80;77.60;;;28.13;36.74;98923.81;5138050;28;20219;-62
2022/07/09 08:34:24;;;;;;;3.05;2.00;;;26.10;77.40;;;28.06;37.33;98922.03;5140212;28;20675;-62
2022/07/09 08:36:57;;;;;;;3.00;2.20;;;26.20;78.00;;;28.09;36.77;98922.03;5143271;28;20586;-62
2022/07/09 08:39:30;;;;;;;4.35;2.20;;;26.00;78.10;;;28.23;36.26;98920.31;5142897;28;20618;-62
2022/07/09 08:42:05;;;;;;;2.90;1.73;;;26.30;76.60;;;28.22;36.23;98921.22;5139574;28;20298;-62
2022/07/09 08:44:42;;;;;;;2.65;1.80;;;26.30;76.60;;;28.46;36.33;98914.28;5139721;28;20253;-61
2022/07/09 08:47:17;;;;;;;2.47;1.65;;;26.40;76.80;;;28.51;35.81;98910.78;5139405;28;20199;-62
2022/07/09 08:49:55;;;;;;;5.70;1.85;;;26.60;75.10;;;28.50;35.52;98905.53;5137732;28;20202;-62
2022/07/09 08:52:29;;;;;;;3.38;1.48;;;26.70;75.30;;;28.44;34.91;98908.13;5141708;28;20802;-62
2022/07/09 08:55:03;;;;;;;5.03;1.70;;;26.60;74.50;;;28.52;35.13;98903.78;5142910;28;20203;-60
2022/07/09 08:57:36;;;;;;;2.70;2.05;;;26.70;74.80;;;28.51;36.28;98900.28;5141669;28;20222;-62
2022/07/09 09:00:10;;;;;;;2.88;1.80;;;26.80;75.30;;;28.59;36.36;98897.66;5138703;28;20231;-59
2022/07/09 09:02:45;;;;;;;3.55;1.83;;;26.90;75.70;;;28.68;36.28;98892.41;5139677;28;20230;-62
2022/07/09 09:05:18;;;;;;;1.92;1.45;;;27.00;75.10;;;28.77;35.72;98890.66;5140533;28;20211;-62
2022/07/09 09:07:51;;;;;;;3.00;1.60;;;27.00;74.90;;;28.83;36.12;98885.41;5140427;28;20201;-61
2022/07/09 09:10:25;;;;;;;3.33;2.15;;;27.50;74.20;;;28.67;35.50;98885.41;5138572;28;20234;-62
2022/07/09 09:12:59;;;;;;;2.35;1.70;;;27.40;72.80;;;28.86;36.09;98886.28;5135412;28;20643;-63
2022/07/09 09:15:32;;;;;;;2.15;1.80;;;27.50;73.80;;;28.87;35.78;98879.25;5136810;28;20204;-58
2022/07/09 09:18:06;;;;;;;2.13;1.40;;;27.40;74.30;;;28.92;34.26;98873.09;5135071;28;20727;-62
2022/07/09 09:20:45;;;;;;;1.85;1.10;;;27.50;71.90;;;28.62;34.52;98876.63;5141100;28;20219;-62
2022/07/09 09:23:19;;;;;;;1.73;1.13;;;27.30;71.80;;;28.71;35.16;98868.72;5140635;28;20211;-61
2022/07/09 09:25:52;;;;;;;2.78;1.83;;;27.40;71.70;;;28.62;35.69;98868.72;5142344;28;20207;-62
2022/07/09 09:28:25;;;;;;;2.58;1.40;;;27.40;72.60;;;28.66;35.57;98862.56;5138166;28;20248;-61
2022/07/09 09:30:58;;;;;;;1.67;1.40;;;27.20;73.10;;;28.67;35.40;98858.19;5135782;28;20625;-60
2022/07/09 09:33:32;;;;;;;1.23;1.13;;;27.20;73.20;;;28.66;35.40;98852.03;5138288;28;20632;-62
2022/07/09 09:36:07;;;;;;;2.10;1.80;;;27.20;73.70;;;28.46;35.09;98849.41;5138288;28;20199;-61
2022/07/09 09:38:40;;;;;;;2.10;1.40;;;27.10;72.40;;;28.38;35.83;98853.72;5134674;28;20849;-61
2022/07/09 09:41:23;;;;;;;1.52;1.38;;;26.80;74.40;;;28.45;36.22;98846.78;5137551;28;20234;-62
2022/07/09 09:43:58;;;;;;;1.63;1.30;;;27.20;73.10;;;28.46;35.00;98838.00;5136660;28;20254;-62
2022/07/09 09:46:33;;;;;;;2.55;1.25;;;27.30;72.20;;;28.35;36.43;98844.97;5137921;28;20222;-63
2022/07/09 09:49:10;;;;;;;2.00;1.50;;;27.20;73.90;;;28.41;36.04;98848.47;5136440;28;20203;-62
2022/07/09 09:51:48;;;;;;;3.60;1.50;;;27.20;73.70;;;28.25;36.26;98844.97;5137213;28;20745;-62
2022/07/09 09:54:23;;;;;;;2.22;1.20;;;27.10;73.50;;;28.40;36.44;98843.22;5140463;28;20717;-61
2022/07/09 09:56:58;;;;;;;2.35;1.25;;;27.20;73.40;;;28.44;35.35;98834.47;5136853;28;20207;-61
2022/07/09 09:59:31;;;;;;;1.63;1.52;;;27.30;72.10;;;28.33;36.41;98837.09;5137077;28;20231;-60
2022/07/09 10:02:06;;;;;;;2.35;0.93;;;27.30;72.40;;;28.23;35.44;98841.44;5137889;28;20301;-61
2022/07/09 10:04:43;;;;;;;1.60;1.00;;;27.20;71.40;;;28.03;35.86;98843.16;5131629;28;20192;-62
2022/07/09 10:07:17;;;;;;;1.60;1.10;;;27.00;71.50;;;28.21;33.97;98840.53;5134891;28;20200;-61
2022/07/09 10:09:54;;;;;;;1.88;1.10;;;27.20;70.00;;;28.38;33.99;98840.56;5132695;28;20203;-62
2022/07/09 10:12:28;;;;;;;1.40;1.13;;;27.30;69.90;;;28.52;34.01;98836.25;5136880;28;20207;-62
2022/07/09 10:15:02;;;;;;;1.75;1.20;;;27.40;68.70;;;28.37;33.94;98827.44;5135654;28;20202;-62
2022/07/09 10:17:41;;;;;;;2.10;1.17;;;27.10;70.20;;;28.14;35.16;98828.28;5138089;28;20939;-62
2022/07/09 10:20:16;;;;;;;1.10;0.93;;;26.90;70.70;;;28.18;34.84;98832.66;5137228;28;20219;-62
2022/07/09 10:22:50;;;;;;;1.80;1.00;;;27.10;70.30;;;28.15;34.58;98830.03;5134956;28;20210;-62
2022/07/09 10:25:29;;;;;;;1.15;0.80;;;27.20;69.20;;;27.88;32.96;98827.34;5133236;28;20254;-61
2022/07/09 10:28:02;;;;;;;1.58;1.00;;;26.90;65.80;;;27.82;33.56;98822.94;5132313;28;20219;-62
2022/07/09 10:30:36;;;;;;;1.13;1.02;;;26.70;66.90;;;27.58;33.70;98826.28;5137119;28;20450;-61
2022/07/09 10:33:12;;;;;;;1.85;1.20;;;26.50;68.50;;;27.55;34.50;98819.28;5131515;28;20208;-61
2022/07/09 10:35:48;;;;;;;1.17;0.93;;;26.50;68.80;;;27.54;34.61;98821.91;5132863;28;20192;-62
2022/07/09 10:38:24;;;;;;;1.17;0.90;;;26.60;69.20;;;27.70;34.44;98807.97;5135410;28;20219;-61
2022/07/09 10:40:59;;;;;;;1.17;1.08;;;26.80;69.10;;;27.94;32.69;98819.47;5135986;28;20629;-61
2022/07/09 10:43:51;;;;;;;1.52;1.33;;;26.90;66.40;;;27.50;34.45;98820.13;5132024;28;20297;-62
2022/07/09 10:46:25;;;;;;;1.77;1.30;;;26.50;69.00;;;27.64;34.54;98821.06;5139545;28;20203;-61
2022/07/09 10:49:01;;;;;;;1.42;1.10;;;26.60;68.80;;;27.39;34.76;98810.47;5136502;28;20199;-61
2022/07/09 10:51:38;;;;;;;1.95;1.30;;;26.40;69.40;;;27.38;36.39;98815.69;5137250;28;20281;-62